createdAt,value
2022-10-11T00:09:02.043Z,101092.44
2022-10-11T00:19:06.483Z,101080.16
2022-10-11T00:29:09.647Z,101087.22
2022-10-11T00:39:14.672Z,101079.34
2022-10-11T00:49:23.166Z,101076.75
2022-10-11T00:59:29.522Z,101079.44
2022-10-11T01:09:33.055Z,101074.19
2022-10-11T01:19:54.709Z,101073.34
2022-10-11T01:30:05.464Z,101071.59
2022-10-11T01:40:12.922Z,101062.84
2022-10-11T01:50:41.870Z,101045.38
2022-10-11T02:00:55.591Z,101047.03
2022-10-11T02:11:02.197Z,101054.91
2022-10-11T02:21:08.698Z,101054.88
2022-10-11T02:31:12.529Z,101040.84
2022-10-11T02:41:24.219Z,101051.31
2022-10-11T02:51:28.047Z,101061.56
2022-10-11T03:01:32.645Z,101066.03
2022-10-11T03:11:35.903Z,101053.78
2022-10-11T03:21:40.335Z,101059.03
2022-10-11T03:31:43.449Z,101052.09
2022-10-11T03:41:47.917Z,101068.63
2022-10-11T03:51:50.999Z,101076.56
2022-10-11T04:01:55.488Z,101076.66
2022-10-11T04:11:58.648Z,101084.63
2022-10-11T04:22:03.107Z,101075.91
2022-10-11T04:32:06.290Z,101081.19
2022-10-11T04:42:10.837Z,101082.06
2022-10-11T04:52:13.858Z,101083.78
2022-10-11T05:02:18.453Z,101078.56
2022-10-11T05:12:21.547Z,101076.81
2022-10-11T05:22:26.109Z,101072.44
2022-10-11T05:32:29.271Z,101082.06
2022-10-11T05:42:33.847Z,101098.66
2022-10-11T05:52:37.179Z,101104.78
2022-10-11T06:02:41.977Z,101105.56
2022-10-11T06:12:45.076Z,101121.25
2022-10-11T06:22:49.504Z,101141.22
2022-10-11T06:32:52.624Z,101144.63
2022-10-11T06:42:57.080Z,101135.59
2022-10-11T06:53:00.347Z,101148.25
2022-10-11T07:03:04.991Z,101144.78
2022-10-11T07:13:08.060Z,101156.94
2022-10-11T07:23:12.535Z,101149.75
2022-10-11T07:33:15.696Z,101153.09
2022-10-11T07:43:20.186Z,101144.38
2022-10-11T07:53:23.251Z,101152.97
2022-10-11T08:03:27.737Z,101156.59
2022-10-11T08:13:30.807Z,101156.34
2022-10-11T08:23:35.355Z,101167.25
2022-10-11T08:33:38.414Z,101164.41
2022-10-11T08:43:46.327Z,101162.16
2022-10-11T08:53:54.560Z,101167.00
2022-10-11T09:04:00.116Z,101159.25
2022-10-11T09:14:24.939Z,101152.09
2022-10-11T09:24:40.554Z,101158.50
2022-10-11T09:34:44.191Z,101163.28
2022-10-11T09:44:50.153Z,101159.19
2022-10-11T09:54:56.282Z,101161.56
2022-10-11T10:05:15.338Z,101153.16
2022-10-11T10:15:20.144Z,101153.91
2022-10-11T10:25:28.505Z,101158.19
2022-10-11T10:35:34.517Z,101153.56
2022-10-11T10:45:50.355Z,101147.62
2022-10-11T10:55:59.112Z,101140.25
2022-10-11T11:06:06.265Z,101129.50
2022-10-11T11:16:14.919Z,101129.75
2022-10-11T11:26:26.368Z,101126.72
2022-10-11T11:36:37.233Z,101131.78
2022-10-11T11:46:45.320Z,101129.16
2022-10-11T11:56:58.034Z,101121.41
2022-10-11T12:07:16.017Z,101111.34
2022-10-11T12:17:21.986Z,101097.91
2022-10-11T12:27:40.312Z,101099.09
2022-10-11T12:37:52.363Z,101095.19
2022-10-11T12:48:17.497Z,101090.91
2022-10-11T12:58:38.841Z,101083.94
2022-10-11T13:08:47.155Z,101081.34
2022-10-11T13:18:52.127Z,101078.56
2022-10-11T13:28:56.816Z,101077.28
2022-10-11T13:39:01.512Z,101072.75
2022-10-11T13:49:26.375Z,101067.25
2022-10-11T13:59:29.482Z,101066.25
2022-10-11T14:09:36.060Z,101075.00
2022-10-11T14:19:39.514Z,101070.72
2022-10-11T14:30:00.299Z,101071.94
2022-10-11T14:40:13.954Z,101081.37
2022-10-11T14:50:39.123Z,101071.00
2022-10-11T15:00:42.235Z,101068.94
2022-10-11T15:10:46.703Z,101074.09
2022-10-11T15:20:51.298Z,101063.41
2022-10-11T15:30:56.129Z,101079.38
2022-10-11T15:40:59.485Z,101088.91
2022-10-11T15:51:03.929Z,101095.81
2022-10-11T16:01:08.969Z,101100.94
2022-10-11T16:11:13.887Z,101109.28
2022-10-11T16:21:17.068Z,101124.97
2022-10-11T16:31:21.485Z,101133.81
2022-10-11T16:41:24.586Z,101139.50
2022-10-11T16:51:30.440Z,101148.50
2022-10-11T17:01:33.531Z,101154.63
2022-10-11T17:11:38.084Z,101168.78
2022-10-11T17:21:41.762Z,101173.66
2022-10-11T17:31:49.334Z,101179.28
2022-10-11T17:41:55.249Z,101183.16
2022-10-11T17:51:59.666Z,101186.09
2022-10-11T18:02:03.842Z,101194.03
2022-10-11T18:12:08.663Z,101203.19
2022-10-11T18:22:11.810Z,101201.62
2022-10-11T18:32:18.123Z,101214.34
2022-10-11T18:42:22.998Z,101218.34
2022-10-11T18:52:27.654Z,101218.88
2022-10-11T19:02:30.778Z,101209.31
2022-10-11T19:12:35.367Z,101205.19
2022-10-11T19:22:38.520Z,101217.91
2022-10-11T19:32:42.942Z,101220.63
2022-10-11T19:42:46.039Z,101225.12
2022-10-11T19:52:50.744Z,101228.06
2022-10-11T20:02:53.903Z,101231.84
2022-10-11T20:12:58.728Z,101230.47
2022-10-11T20:23:01.796Z,101241.19
2022-10-11T20:33:06.287Z,101241.19
2022-10-11T20:43:09.432Z,101236.87
2022-10-11T20:53:16.348Z,101254.66
2022-10-11T21:03:19.913Z,101255.72
2022-10-11T21:13:24.513Z,101258.53
2022-10-11T21:23:27.681Z,101262.91
2022-10-11T21:33:32.176Z,101264.19
2022-10-11T21:43:36.149Z,101258.06
2022-10-11T21:53:40.661Z,101264.28
2022-10-11T22:03:43.859Z,101270.50
2022-10-11T22:13:49.434Z,101272.41
2022-10-11T22:23:54.112Z,101261.94
2022-10-11T22:34:00.335Z,101261.97
2022-10-11T22:44:03.543Z,101259.38
2022-10-11T22:54:07.976Z,101259.44
2022-10-11T23:04:11.092Z,101267.25
2022-10-11T23:14:15.645Z,101259.31
2022-10-11T23:24:18.740Z,101267.28
2022-10-11T23:34:23.246Z,101274.25
2022-10-11T23:44:26.539Z,101278.66
2022-10-11T23:54:31.054Z,101283.91
